Time;durP1;ratioP1;P1;durP2;ratioP2;P2;SDS_P1;SDS_P2;PMS_P1;PMS_P2;Temp;Humidity;BMP_temperature;BMP_pressure;BME280_temperature;BME280_humidity;BME280_pressure;Samples;Min_cycle;Max_cycle;Signal;HPM_P1;HPM_P2
2022/05/18 00:01:01;;;;;;;6.88;6.57;;;;;;;15.25;53.91;100588.59;5028172;28;20056;-62
2022/05/18 00:03:32;;;;;;;6.68;6.38;;;;;;;15.29;54.32;100584.50;5031570;28;20017;-62
2022/05/18 00:06:01;;;;;;;6.50;6.20;;;;;;;15.22;55.10;100584.50;5032052;28;20021;-62
2022/05/18 00:08:27;;;;;;;6.55;6.25;;;;;;;15.21;54.86;100588.19;5031801;28;20128;-62
2022/05/18 00:10:53;;;;;;;6.60;6.30;;;;;;;15.01;53.25;100595.34;5032228;28;20029;-61
2022/05/18 00:13:19;;;;;;;6.95;6.65;;;;;;;14.99;52.27;100597.41;5031362;28;20056;-62
2022/05/18 00:15:46;;;;;;;6.75;6.45;;;;;;;15.00;52.00;100599.88;5023600;28;20089;-61
2022/05/18 00:18:12;;;;;;;6.70;6.40;;;;;;;15.02;52.13;100613.84;5025497;28;20492;-62
2022/05/18 00:20:38;;;;;;;6.63;6.32;;;;;;;15.03;53.50;100617.31;5025269;28;20518;-61
2022/05/18 00:23:04;;;;;;;6.15;5.93;;;;;;;14.88;53.88;100607.63;5031728;28;20022;-62
2022/05/18 00:25:34;;;;;;;6.47;6.18;;;;;;;14.92;52.10;100621.41;5031680;28;20508;-61
2022/05/18 00:28:00;;;;;;;6.78;6.47;;;;;;;14.78;52.24;100614.38;5018286;28;20076;-62
2022/05/18 00:30:27;;;;;;;6.90;6.60;;;;;;;14.79;52.53;100621.38;5031639;28;20029;-61
2022/05/18 00:32:53;;;;;;;6.50;6.20;;;;;;;14.79;53.37;100618.69;5029657;28;20041;-61
2022/05/18 00:35:19;;;;;;;6.32;6.05;;;;;;;14.74;53.61;100615.78;5031366;28;20148;-63
2022/05/18 00:37:45;;;;;;;6.90;6.60;;;;;;;14.71;53.61;100613.53;5031204;28;20029;-62
2022/05/18 00:40:13;;;;;;;6.50;6.20;;;;;;;14.74;53.10;100610.47;5030298;28;20082;-62
2022/05/18 00:42:40;;;;;;;6.85;6.55;;;;;;;14.72;52.63;100616.00;5026747;28;20109;-62
2022/05/18 00:45:06;;;;;;;6.55;6.25;;;;;;;14.75;54.21;100614.78;5031393;28;20045;-62
2022/05/18 00:47:32;;;;;;;6.70;6.40;;;;;;;14.74;54.92;100621.13;5031357;28;20030;-62
2022/05/18 00:50:17;;;;;;;6.43;6.13;;;;;;;14.72;56.23;100618.66;5031589;28;20040;-62
2022/05/18 00:52:51;;;;;;;6.57;6.28;;;;;;;14.59;53.88;100637.28;5018222;28;20519;-62
2022/05/18 00:55:21;;;;;;;6.70;6.40;;;;;;;14.50;50.99;100636.66;5030339;28;20037;-62
2022/05/18 00:57:56;;;;;;;6.63;6.32;;;;;;;14.45;50.38;100638.22;5031230;28;20037;-62
2022/05/18 01:00:22;;;;;;;6.38;6.07;;;;;;;14.43;47.75;100645.59;5011747;28;20033;-62
2022/05/18 01:03:16;;;;;;;6.53;6.22;;;;;;;14.26;43.45;100650.44;5025029;28;20024;-62
2022/05/18 01:05:46;;;;;;;6.40;6.10;;;;;;;14.20;41.62;100652.03;5031364;28;20380;-61
2022/05/18 01:08:17;;;;;;;6.15;5.95;;;;;;;14.12;39.12;100654.03;5031267;28;20255;-62
2022/05/18 01:10:43;;;;;;;5.97;5.78;;;;;;;14.10;38.30;100664.88;5031114;28;20520;-62
2022/05/18 01:13:08;;;;;;;6.40;6.10;;;;;;;14.00;37.75;100664.41;5016320;28;20034;-62
2022/05/18 01:15:34;;;;;;;6.43;6.13;;;;;;;13.92;37.81;100664.56;5031212;28;20030;-62
2022/05/18 01:18:01;;;;;;;6.40;6.10;;;;;;;13.73;36.85;100676.69;5035044;28;20485;-61
2022/05/18 01:20:32;;;;;;;6.60;6.30;;;;;;;13.72;36.61;100677.72;5035145;28;20469;-62
2022/05/18 01:23:04;;;;;;;6.65;6.35;;;;;;;13.76;37.14;100678.97;5034921;28;20025;-61
2022/05/18 01:25:57;;;;;;;6.55;6.25;;;;;;;13.68;36.42;100685.28;5034736;28;20443;-61
2022/05/18 01:28:26;;;;;;;6.13;5.90;;;;;;;13.54;37.06;100681.66;5034398;28;20034;-61
2022/05/18 01:30:51;;;;;;;6.60;6.30;;;;;;;13.42;36.68;100682.34;5034643;28;20021;-62
2022/05/18 01:33:19;;;;;;;6.63;6.32;;;;;;;13.44;37.16;100691.81;5034437;28;20025;-61
2022/05/18 01:35:47;;;;;;;6.50;6.20;;;;;;;13.23;36.18;100686.47;5034486;28;20409;-62
2022/05/18 01:38:13;;;;;;;6.40;6.10;;;;;;;13.30;37.10;100698.00;5034667;28;20032;-61
2022/05/18 01:40:44;;;;;;;7.00;6.70;;;;;;;13.18;36.23;100696.81;5032041;28;20404;-61
2022/05/18 01:43:35;;;;;;;6.72;6.43;;;;;;;13.21;36.63;100701.78;5024816;28;20033;-61
2022/05/18 01:46:06;;;;;;;6.78;6.47;;;;;;;12.98;36.13;100701.88;5031364;28;20411;-62
2022/05/18 01:48:35;;;;;;;6.75;6.45;;;;;;;13.08;36.29;100713.09;5034469;28;20547;-61
2022/05/18 01:51:03;;;;;;;6.57;6.28;;;;;;;13.06;36.03;100717.75;5033132;28;20030;-62
2022/05/18 01:53:30;;;;;;;6.85;6.55;;;;;;;12.77;35.19;100721.28;5034212;28;20048;-62
2022/05/18 01:55:55;;;;;;;6.30;6.00;;;;;;;12.77;34.35;100723.13;5034572;28;20025;-63
2022/05/18 01:58:21;;;;;;;6.60;6.30;;;;;;;12.85;34.94;100723.88;5034302;28;20107;-61
2022/05/18 02:00:47;;;;;;;6.55;6.25;;;;;;;12.70;33.98;100731.81;5034202;28;20481;-61
2022/05/18 02:03:14;;;;;;;6.40;6.10;;;;;;;12.71;34.19;100733.50;5033800;28;20067;-62
2022/05/18 02:05:40;;;;;;;6.72;6.43;;;;;;;12.75;35.36;100738.44;5033980;28;20025;-62
2022/05/18 02:08:06;;;;;;;6.50;6.20;;;;;;;12.71;35.19;100733.50;5033978;28;20112;-63
2022/05/18 02:10:33;;;;;;;6.40;6.10;;;;;;;12.71;35.88;100743.34;5034155;28;20253;-61
2022/05/18 02:12:58;;;;;;;6.50;6.20;;;;;;;12.65;35.48;100739.56;5033618;28;20044;-62
2022/05/18 02:15:24;;;;;;;6.43;6.13;;;;;;;12.66;35.55;100743.88;5034027;28;20017;-61
2022/05/18 02:17:51;;;;;;;6.30;6.00;;;;;;;12.69;35.86;100751.47;5033966;28;20025;-61
2022/05/18 02:20:18;;;;;;;6.75;6.45;;;;;;;12.58;35.93;100754.59;5033761;28;20101;-61
2022/05/18 02:22:44;;;;;;;6.63;6.32;;;;;;;12.57;36.64;100763.59;5032384;28;20025;-61
2022/05/18 02:25:09;;;;;;;6.43;6.13;;;;;;;12.39;36.75;100766.59;5033750;28;20022;-61
2022/05/18 02:27:35;;;;;;;6.38;6.07;;;;;;;12.42;37.06;100768.91;5033362;28;20048;-60
2022/05/18 02:30:02;;;;;;;6.50;6.20;;;;;;;12.43;36.99;100761.75;5031375;28;20524;-62
2022/05/18 02:32:28;;;;;;;6.13;5.85;;;;;;;12.27;36.07;100765.38;5033520;28;20568;-61
2022/05/18 02:34:54;;;;;;;6.65;6.35;;;;;;;12.32;37.02;100770.97;5033808;28;20112;-62
2022/05/18 02:37:19;;;;;;;6.40;6.10;;;;;;;12.27;37.14;100767.22;5033391;28;20476;-62
2022/05/18 02:39:44;;;;;;;6.45;6.15;;;;;;;12.35;36.65;100778.59;5033432;28;20449;-61
2022/05/18 02:42:10;;;;;;;6.32;6.03;;;;;;;12.62;37.13;100779.00;5025446;28;20037;-62
2022/05/18 02:44:36;;;;;;;6.90;6.60;;;;;;;12.72;36.68;100779.59;5028047;28;20049;-62
2022/05/18 02:47:03;;;;;;;6.50;6.20;;;;;;;12.40;37.24;100778.03;5033468;28;20034;-62
2022/05/18 02:49:29;;;;;;;6.85;6.55;;;;;;;12.51;37.03;100790.94;5021279;28;20028;-62
2022/05/18 02:51:55;;;;;;;6.40;6.10;;;;;;;12.21;36.91;100783.88;5033228;28;20088;-61
2022/05/18 02:57:06;;;;;;;6.80;6.50;;;;;;;12.53;36.64;100780.94;5033357;28;20080;-62
2022/05/18 02:59:32;;;;;;;6.47;6.18;;;;;;;12.40;37.55;100788.69;5033055;28;20581;-61
2022/05/18 03:01:59;;;;;;;6.40;6.10;;;;;;;12.27;37.72;100799.13;5032913;28;20108;-62
2022/05/18 03:04:25;;;;;;;6.75;6.45;;;;;;;12.54;37.39;100806.53;5032825;28;20461;-62
2022/05/18 03:06:51;;;;;;;6.57;6.28;;;;;;;12.39;37.60;100811.81;5033291;28;20025;-62
2022/05/18 03:09:18;;;;;;;6.60;6.30;;;;;;;12.78;37.62;100820.59;5032852;28;20029;-61
2022/05/18 03:11:44;;;;;;;6.53;6.22;;;;;;;13.24;36.93;100818.66;5033384;28;20028;-61
2022/05/18 03:14:10;;;;;;;6.68;6.38;;;;;;;14.65;34.72;100836.75;5031671;28;20037;-62
2022/05/18 03:16:37;;;;;;;6.80;6.50;;;;;;;15.56;32.40;100845.53;5032880;28;20021;-61
2022/05/18 03:19:03;;;;;;;6.60;6.30;;;;;;;17.97;29.59;100867.53;5032994;28;20033;-63
2022/05/18 03:24:13;;;;;;;6.65;6.35;;;;;;;18.96;27.48;100875.72;5013249;28;20064;-62
2022/05/18 03:26:38;;;;;;;6.65;6.35;;;;;;;19.47;27.08;100879.13;5030373;28;20064;-62
2022/05/18 03:29:04;;;;;;;6.60;6.30;;;;;;;19.63;26.53;100880.41;5032979;28;20036;-62
2022/05/18 03:31:29;;;;;;;6.70;6.40;;;;;;;20.51;25.66;100891.44;5032577;28;20055;-62
2022/05/18 03:33:55;;;;;;;6.53;6.22;;;;;;;21.16;24.81;100894.06;5032476;28;20120;-62
2022/05/18 03:36:22;;;;;;;6.78;6.47;;;;;;;21.51;24.11;100893.22;5032590;28;20041;-62
2022/05/18 03:38:48;;;;;;;6.80;6.50;;;;;;;21.39;24.49;100898.63;5027538;28;20405;-63
2022/05/18 03:41:16;;;;;;;7.00;6.70;;;;;;;22.52;23.32;100913.28;5031676;28;20401;-63
2022/05/18 03:43:42;;;;;;;6.80;6.50;;;;;;;23.31;22.53;100918.59;5032001;28;20046;-63
2022/05/18 03:46:08;;;;;;;6.93;6.63;;;;;;;22.81;22.64;100905.09;5032116;28;20028;-62
2022/05/18 03:48:34;;;;;;;6.95;6.65;;;;;;;23.96;21.57;100922.44;5032205;28;20378;-62
2022/05/18 03:51:01;;;;;;;6.88;6.57;;;;;;;24.65;21.20;100917.16;5030729;28;20032;-63
2022/05/18 03:53:27;;;;;;;7.13;6.82;;;;;;;23.03;22.03;100919.53;5036548;28;20548;-63
2022/05/18 03:55:53;;;;;;;6.95;6.65;;;;;;;23.88;22.13;100922.88;5032450;28;20120;-62
2022/05/18 03:58:19;;;;;;;7.18;6.88;;;;;;;24.37;21.53;100926.41;5031916;28;20033;-62
2022/05/18 04:00:47;;;;;;;7.20;6.90;;;;;;;24.93;21.10;100926.91;5031689;28;20029;-63
2022/05/18 04:03:14;;;;;;;7.00;6.70;;;;;;;24.79;20.98;100940.09;5031848;28;20025;-63
2022/05/18 04:05:41;;;;;;;7.20;6.90;;;;;;;25.19;20.45;100925.22;5031585;28;20449;-63
2022/05/18 04:08:08;;;;;;;7.47;7.18;;;;;;;25.00;20.50;100922.06;5031416;28;20026;-63
2022/05/18 04:10:35;;;;;;;7.28;6.97;;;;;;;26.24;19.84;100929.75;5031872;28;20445;-63
2022/05/18 04:13:01;;;;;;;7.30;7.00;;;;;;;26.39;19.32;100927.06;5031411;28;20022;-62
2022/05/18 04:15:27;;;;;;;7.30;7.00;;;;;;;24.15;20.45;100920.19;5031938;28;20032;-63
2022/05/18 04:17:53;;;;;;;7.00;6.70;;;;;;;26.59;18.87;100932.53;5031531;28;20033;-63
2022/05/18 04:20:21;;;;;;;7.18;6.88;;;;;;;26.77;18.79;100928.44;5031958;28;20053;-62
2022/05/18 04:22:48;;;;;;;7.18;6.88;;;;;;;27.94;18.19;100941.00;5031481;28;20025;-62
2022/05/18 04:25:16;;;;;;;7.13;6.82;;;;;;;27.21;18.08;100936.06;5031410;28;20883;-62
2022/05/18 04:27:42;;;;;;;7.20;6.90;;;;;;;26.55;18.29;100944.22;5031580;28;20025;-63
2022/05/18 04:30:08;;;;;;;7.35;7.05;;;;;;;27.06;18.70;100941.53;5031593;28;20027;-62
2022/05/18 04:32:37;;;;;;;7.20;6.90;;;;;;;26.13;19.08;100940.59;5031259;28;20531;-62
2022/05/18 04:35:03;;;;;;;7.25;6.95;;;;;;;26.64;19.15;100943.41;5031281;28;20044;-62
2022/05/18 04:37:28;;;;;;;7.20;6.90;;;;;;;24.91;19.34;100944.53;5031229;28;20033;-62
2022/05/18 04:39:54;;;;;;;7.07;6.78;;;;;;;26.08;19.37;100947.94;5031599;28;20453;-63
2022/05/18 04:42:22;;;;;;;7.30;7.00;;;;;;;25.67;19.98;100949.63;5031487;28;20022;-63
2022/05/18 04:44:50;;;;;;;7.20;6.90;;;;;;;28.05;17.92;100942.56;5031538;28;20470;-62
2022/05/18 04:47:16;;;;;;;7.28;6.97;;;;;;;25.94;18.82;100946.78;5031161;28;20424;-63
2022/05/18 04:49:41;;;;;;;7.50;7.20;;;;;;;26.20;19.29;100942.22;5034866;28;20107;-63
2022/05/18 04:52:07;;;;;;;7.30;7.00;;;;;;;26.75;18.87;100943.44;5035136;28;20032;-62
2022/05/18 04:54:35;;;;;;;7.50;7.20;;;;;;;26.71;18.45;100943.97;5035409;28;20163;-62
2022/05/18 04:57:00;;;;;;;7.18;6.88;;;;;;;26.59;18.48;100951.59;5026919;28;20433;-62
2022/05/18 04:59:26;;;;;;;7.40;7.10;;;;;;;26.34;18.26;100956.94;5031264;28;20032;-63
2022/05/18 05:01:51;;;;;;;7.22;6.93;;;;;;;26.65;18.62;100957.84;5035385;28;20493;-62
2022/05/18 05:04:17;;;;;;;7.13;6.82;;;;;;;26.80;18.39;100946.94;5033666;28;20032;-62
2022/05/18 05:06:45;;;;;;;7.20;6.90;;;;;;;25.67;18.29;100941.47;5035211;28;20088;-63
2022/05/18 05:09:12;;;;;;;7.20;6.90;;;;;;;26.17;18.51;100957.19;5035553;28;20407;-64
2022/05/18 05:11:37;;;;;;;7.30;7.00;;;;;;;26.57;18.00;100964.63;5034808;28;20463;-63
2022/05/18 05:14:03;;;;;;;7.10;6.80;;;;;;;27.21;17.70;100968.75;5035157;28;20136;-62
2022/05/18 05:16:29;;;;;;;6.97;6.68;;;;;;;27.76;17.68;100964.25;5035376;28;20156;-62
2022/05/18 05:18:56;;;;;;;7.10;6.80;;;;;;;28.27;17.34;100972.19;5053544;28;20029;-63
2022/05/18 05:21:22;;;;;;;7.20;6.90;;;;;;;25.86;18.34;100972.59;5039617;28;20432;-63
2022/05/18 05:23:47;;;;;;;7.10;6.80;;;;;;;26.46;17.97;100986.66;5035132;28;20105;-62
2022/05/18 05:26:14;;;;;;;7.20;6.90;;;;;;;26.91;18.02;100994.88;5034794;28;20036;-62
2022/05/18 05:28:40;;;;;;;7.20;6.90;;;;;;;26.36;17.88;100998.28;5035086;28;20036;-62
2022/05/18 05:31:08;;;;;;;7.32;7.03;;;;;;;25.91;17.92;100978.03;5038135;28;20436;-62
2022/05/18 05:33:35;;;;;;;7.03;6.72;;;;;;;27.20;17.00;100981.56;5035060;28;20109;-62
2022/05/18 05:36:01;;;;;;;7.40;7.10;;;;;;;26.06;18.05;100993.59;5034645;28;20025;-62
2022/05/18 05:38:27;;;;;;;7.30;7.00;;;;;;;25.70;18.32;100995.28;5034751;28;20435;-63
2022/05/18 05:40:54;;;;;;;7.38;7.07;;;;;;;26.65;17.89;101007.63;5034516;28;20025;-62
2022/05/18 05:43:19;;;;;;;6.97;6.68;;;;;;;27.13;17.83;101002.81;5034348;28;20049;-62
2022/05/18 05:45:58;;;;;;;7.13;6.82;;;;;;;27.33;17.39;101022.94;5033181;28;20439;-63
2022/05/18 05:48:23;;;;;;;7.25;6.95;;;;;;;26.87;18.51;101022.91;5033834;28;20369;-63
2022/05/18 05:50:49;;;;;;;7.20;6.90;;;;;;;27.31;17.24;101022.38;5033568;28;20103;-62
2022/05/18 05:53:14;;;;;;;7.10;6.80;;;;;;;26.27;18.04;101027.09;5033083;28;20064;-63
2022/05/18 05:55:40;;;;;;;7.20;6.90;;;;;;;27.04;17.83;101030.84;5032535;28;20032;-63
2022/05/18 05:58:05;;;;;;;6.97;6.68;;;;;;;25.70;18.54;101020.56;5020590;28;20076;-62
2022/05/18 06:00:31;;;;;;;7.15;6.85;;;;;;;26.52;18.52;101038.13;5032665;28;20037;-63
2022/05/18 06:02:57;;;;;;;7.20;6.90;;;;;;;25.71;18.93;101024.13;5033093;28;20017;-63
2022/05/18 06:05:22;;;;;;;7.20;6.90;;;;;;;25.77;19.23;101025.78;5032846;28;20033;-63
2022/05/18 06:07:48;;;;;;;7.00;6.70;;;;;;;21.91;21.30;101027.47;5033272;28;20022;-62
2022/05/18 06:10:13;;;;;;;7.13;6.82;;;;;;;25.48;19.79;101039.72;5031310;28;20030;-63
2022/05/18 06:12:39;;;;;;;7.00;6.70;;;;;;;27.35;17.58;101053.47;5022581;28;20116;-63
2022/05/18 06:15:06;;;;;;;6.60;6.30;;;;;;;27.63;18.13;101047.44;5033035;28;20068;-62
2022/05/18 06:17:32;;;;;;;7.00;6.70;;;;;;;27.73;17.24;101052.06;5032715;28;20028;-62
2022/05/18 06:19:58;;;;;;;7.38;7.07;;;;;;;26.79;18.16;101051.47;5032748;28;20520;-62
2022/05/18 06:22:25;;;;;;;7.18;6.88;;;;;;;27.09;18.04;101058.06;5032740;28;20108;-62
2022/05/18 06:24:54;;;;;;;7.10;6.80;;;;;;;25.83;18.54;101050.03;5031232;28;20021;-62
2022/05/18 06:27:21;;;;;;;7.10;6.80;;;;;;;27.61;17.58;101059.66;5032623;28;20108;-62
2022/05/18 06:29:48;;;;;;;7.30;7.00;;;;;;;25.35;18.86;101051.88;5032888;28;20464;-63
2022/05/18 06:32:14;;;;;;;7.13;6.82;;;;;;;22.31;21.00;101043.72;5032800;28;20026;-63
2022/05/18 06:34:40;;;;;;;7.10;6.80;;;;;;;25.29;18.99;101063.75;5032423;28;20022;-63
2022/05/18 06:37:05;;;;;;;6.82;6.53;;;;;;;27.08;17.42;101070.88;5032975;28;20033;-62
2022/05/18 06:39:31;;;;;;;7.00;6.70;;;;;;;27.22;17.63;101080.16;5032540;28;20071;-63
2022/05/18 06:41:58;;;;;;;7.13;6.82;;;;;;;24.55;20.00;101065.47;5032364;28;20013;-62
2022/05/18 06:44:24;;;;;;;6.95;6.65;;;;;;;25.69;18.47;101062.41;4987227;28;1326898;-62
2022/05/18 06:46:50;;;;;;;7.00;6.70;;;;;;;26.36;18.36;101067.13;5033659;28;20051;-62
2022/05/18 06:49:17;;;;;;;6.95;6.65;;;;;;;26.38;19.02;101075.84;5014033;28;20441;-63
2022/05/18 06:51:44;;;;;;;6.70;6.40;;;;;;;24.08;20.72;101066.75;5027641;28;20029;-63
2022/05/18 06:54:10;;;;;;;6.97;6.68;;;;;;;24.25;20.53;101072.13;5032182;28;20044;-62
2022/05/18 06:56:39;;;;;;;6.80;6.50;;;;;;;24.01;20.74;101073.44;5044278;28;20031;-63
2022/05/18 06:59:04;;;;;;;6.80;6.50;;;;;;;25.65;19.47;101077.63;5033408;28;20112;-62
2022/05/18 07:01:30;;;;;;;7.20;6.90;;;;;;;25.20;19.42;101068.03;5033066;28;20493;-62
2022/05/18 07:03:57;;;;;;;6.90;6.60;;;;;;;24.50;20.53;101077.06;5032103;28;20434;-64
2022/05/18 07:06:24;;;;;;;7.18;6.88;;;;;;;25.99;18.40;101069.94;5033277;28;20055;-63
2022/05/18 07:08:55;;;;;;;7.20;6.90;;;;;;;25.90;18.92;101082.41;5032888;28;20053;-62
2022/05/18 07:11:22;;;;;;;7.03;6.72;;;;;;;26.35;18.77;101079.09;5042523;28;20025;-63
2022/05/18 07:13:51;;;;;;;7.10;6.80;;;;;;;26.35;18.91;101089.16;5032091;28;20033;-63
2022/05/18 07:16:18;;;;;;;7.15;6.85;;;;;;;25.29;19.80;101092.81;5024480;28;20033;-62
2022/05/18 07:18:44;;;;;;;6.50;6.20;;;;;;;22.58;22.42;101090.78;5027897;28;20025;-62
2022/05/18 07:21:10;;;;;;;6.70;6.40;;;;;;;21.86;22.70;101076.78;5033194;28;20025;-62
2022/05/18 07:23:36;;;;;;;6.95;6.65;;;;;;;21.38;23.96;101079.72;5035630;28;20087;-63
2022/05/18 07:26:02;;;;;;;6.90;6.60;;;;;;;22.85;22.83;101088.34;5035545;28;20029;-62
2022/05/18 07:28:28;;;;;;;6.70;6.40;;;;;;;20.06;24.88;101099.25;5032937;28;20031;-62
2022/05/18 07:30:54;;;;;;;6.97;6.68;;;;;;;22.00;22.75;101093.56;5032833;28;20417;-63
2022/05/18 07:33:21;;;;;;;6.70;6.40;;;;;;;24.32;20.72;101097.16;5032815;28;20087;-63
2022/05/18 07:35:49;;;;;;;6.70;6.40;;;;;;;21.48;23.00;101091.56;5032822;28;20040;-63
2022/05/18 07:38:14;;;;;;;6.90;6.60;;;;;;;18.99;26.05;101092.22;5021765;28;20029;-63
2022/05/18 07:40:40;;;;;;;6.72;6.43;;;;;;;16.80;28.92;101113.09;5032535;28;20100;-63
2022/05/18 07:43:06;;;;;;;7.10;6.80;;;;;;;20.06;25.33;101104.63;5032068;28;20404;-62
2022/05/18 07:45:33;;;;;;;7.20;6.90;;;;;;;21.30;23.74;101117.81;5032210;28;20040;-63
2022/05/18 07:47:58;;;;;;;6.97;6.68;;;;;;;20.50;24.62;101093.81;5029049;28;20028;-63
2022/05/18 07:50:25;;;;;;;6.65;6.35;;;;;;;19.81;25.43;101095.75;5022080;28;20037;-63
2022/05/18 07:52:52;;;;;;;6.97;6.68;;;;;;;21.47;24.00;101126.91;5033121;28;20385;-61
2022/05/18 07:55:18;;;;;;;7.15;6.85;;;;;;;20.07;25.21;101127.00;5032822;28;20439;-63
2022/05/18 07:57:44;;;;;;;6.78;6.47;;;;;;;18.84;27.04;101138.22;5033248;28;20033;-62
2022/05/18 08:00:12;;;;;;;7.10;6.80;;;;;;;20.26;25.58;101127.81;5033154;28;20478;-62
2022/05/18 08:02:38;;;;;;;6.78;6.47;;;;;;;18.46;27.47;101133.59;5031834;28;20550;-63
2022/05/18 08:05:05;;;;;;;6.95;6.65;;;;;;;20.08;25.59;101136.72;5032552;28;20029;-62
2022/05/18 08:07:31;;;;;;;6.72;6.43;;;;;;;19.77;25.73;101145.72;5032936;28;20460;-61
2022/05/18 08:15:24;;;;;;;7.05;6.75;;;;;;;19.90;25.84;101139.38;5031981;28;20507;-62
2022/05/18 08:17:50;;;;;;;6.60;6.30;;;;;;;21.36;24.34;101151.97;5031966;28;20033;-62
2022/05/18 08:20:19;;;;;;;6.70;6.40;;;;;;;20.02;25.74;101134.91;5035036;28;20021;-62
2022/05/18 08:22:45;;;;;;;6.68;6.38;;;;;;;20.81;24.84;101146.72;5035277;28;20033;-63
2022/05/18 08:25:11;;;;;;;6.68;6.38;;;;;;;20.24;24.80;101129.91;5031477;28;20067;-62
2022/05/18 08:27:47;;;;;;;7.30;7.00;;;;;;;19.17;26.51;101148.81;5030342;28;20048;-64
2022/05/18 08:30:17;;;;;;;6.70;6.40;;;;;;;18.63;28.02;101141.16;5031971;28;20025;-63
2022/05/18 08:32:42;;;;;;;6.70;6.40;;;;;;;19.51;26.11;101139.44;5030059;28;20037;-63
2022/05/18 08:35:09;;;;;;;6.97;6.68;;;;;;;17.88;28.36;101141.53;5024879;28;20388;-63
2022/05/18 08:37:48;;;;;;;7.00;6.70;;;;;;;18.27;28.00;101158.63;5031641;28;20096;-62
2022/05/18 08:40:30;;;;;;;6.78;6.47;;;;;;;19.04;27.35;101147.00;5020023;28;20033;-61
2022/05/18 08:42:58;;;;;;;6.68;6.38;;;;;;;18.57;28.57;101136.63;5028035;28;20575;-63
2022/05/18 08:45:29;;;;;;;6.93;6.63;;;;;;;18.12;28.32;101147.28;5021666;28;20506;-63
2022/05/18 08:48:13;;;;;;;6.80;6.50;;;;;;;17.98;27.91;101148.34;5029955;28;20146;-63
2022/05/18 08:50:39;;;;;;;6.57;6.28;;;;;;;18.95;27.20;101142.94;5037624;28;20033;-63
2022/05/18 08:53:34;;;;;;;6.20;6.00;;;;;;;17.85;28.74;101146.53;5031991;28;20037;-63
2022/05/18 08:56:13;;;;;;;6.50;6.20;;;;;;;17.36;29.17;101140.47;5031480;28;20021;-63
2022/05/18 08:58:45;;;;;;;6.57;6.28;;;;;;;18.42;28.04;101150.31;5031499;28;20029;-63
2022/05/18 09:01:22;;;;;;;6.70;6.40;;;;;;;19.14;27.36;101146.53;5018241;28;20503;-62
2022/05/18 09:04:43;;;;;;;6.68;6.38;;;;;;;17.54;28.95;101150.59;5039123;28;20030;-63
2022/05/18 09:07:13;;;;;;;6.63;6.32;;;;;;;17.42;29.20;101146.88;5005342;28;20381;-63
2022/05/18 09:12:25;;;;;;;6.50;6.20;;;;;;;17.67;29.02;101157.81;5031312;28;20048;-62
2022/05/18 09:14:52;;;;;;;6.50;6.20;;;;;;;18.52;27.75;101157.97;5031336;28;20030;-62
2022/05/18 09:17:24;;;;;;;6.80;6.50;;;;;;;18.99;27.06;101152.19;5031265;28;20029;-62
2022/05/18 09:20:03;;;;;;;6.63;6.32;;;;;;;18.42;27.35;101158.38;5029751;28;20056;-62
2022/05/18 09:22:50;;;;;;;6.82;6.53;;;;;;;18.59;26.92;101142.66;5031231;28;20061;-63
2022/05/18 09:25:34;;;;;;;6.80;6.50;;;;;;;19.37;26.10;101150.53;5030866;28;20499;-63
2022/05/18 09:28:10;;;;;;;6.95;6.65;;;;;;;17.75;28.86;101154.97;5031098;28;20034;-63
2022/05/18 09:31:06;;;;;;;6.90;6.60;;;;;;;20.15;25.68;101159.03;5035564;28;20028;-62
2022/05/18 09:33:47;;;;;;;6.60;6.30;;;;;;;19.01;26.75;101160.88;5023764;28;20026;-62
2022/05/18 09:36:52;;;;;;;6.88;6.57;;;;;;;18.62;27.26;101144.91;5026659;28;20075;-63
2022/05/18 09:39:21;;;;;;;;;;;;;;;17.92;27.79;101133.88;5033197;28;20121;-62
2022/05/18 09:41:59;;;;;;;6.50;6.20;;;;;;;17.97;27.80;101144.00;5049882;28;20315;-63
2022/05/18 09:44:43;;;;;;;6.40;6.10;;;;;;;18.25;28.00;101158.00;5034582;28;20047;-61
2022/05/18 09:47:15;;;;;;;6.25;6.00;;;;;;;17.82;28.41;101158.47;5034698;28;20060;-62
2022/05/18 09:49:50;;;;;;;6.50;6.20;;;;;;;17.98;28.61;101175.19;5034781;28;20041;-62
2022/05/18 09:52:21;;;;;;;6.90;6.60;;;;;;;17.77;29.07;101168.16;5034344;28;20083;-62
2022/05/18 09:54:46;;;;;;;7.10;6.80;;;;;;;17.03;29.93;101163.69;5034558;28;20071;-64
2022/05/18 09:57:22;;;;;;;6.70;6.40;;;;;;;17.40;29.82;101152.41;5031318;28;20026;-62
2022/05/18 10:00:12;;;;;;;6.82;6.53;;;;;;;17.84;29.19;101158.25;5034060;28;20128;-61
2022/05/18 10:08:14;;;;;;;6.68;6.38;;;;;;;16.75;31.01;101175.34;5029621;28;19916;-63
2022/05/18 10:10:41;;;;;;;6.57;6.28;;;;;;;16.71;31.12;101160.69;5026094;28;20026;-63
2022/05/18 10:13:13;;;;;;;6.70;6.40;;;;;;;16.09;31.67;101179.47;5030371;28;20429;-62
2022/05/18 10:15:45;;;;;;;6.57;6.28;;;;;;;16.14;31.30;101177.00;5034334;28;20056;-62
2022/05/18 10:18:23;;;;;;;6.45;6.15;;;;;;;16.40;31.64;101192.44;5034170;28;20037;-62
2022/05/18 10:21:21;;;;;;;6.13;5.93;;;;;;;15.89;32.18;101181.97;5030000;28;20030;-62
2022/05/18 10:23:59;;;;;;;7.13;6.82;;;;;;;16.11;32.24;101180.91;5023671;28;20170;-62
2022/05/18 10:26:32;;;;;;;7.38;7.07;;;;;;;16.50;31.73;101193.72;5036870;28;20028;-63
2022/05/18 10:29:18;;;;;;;6.90;6.60;;;;;;;15.80;33.08;101194.66;5032009;28;20030;-62
2022/05/18 10:31:59;;;;;;;6.50;6.20;;;;;;;15.81;33.00;101190.13;5033073;28;20048;-62
2022/05/18 10:34:29;;;;;;;6.63;6.32;;;;;;;16.14;32.73;101190.38;5033448;28;20108;-61
2022/05/18 10:36:58;;;;;;;6.70;6.40;;;;;;;15.42;34.57;101205.59;5025253;28;20064;-62
2022/05/18 10:39:40;;;;;;;6.80;6.50;;;;;;;15.27;34.76;101211.97;5027464;28;20099;-62
2022/05/18 10:42:28;;;;;;;6.53;6.22;;;;;;;15.54;34.65;101205.06;5028505;28;20037;-63
2022/05/18 10:44:58;;;;;;;6.80;6.50;;;;;;;15.38;34.75;101209.66;5033369;28;20053;-62
2022/05/18 10:47:36;;;;;;;6.75;6.45;;;;;;;15.51;34.61;101221.50;5032482;28;20048;-62
2022/05/18 10:50:34;;;;;;;6.85;6.55;;;;;;;15.63;34.65;101206.63;5033606;28;20105;-62
2022/05/18 10:53:17;;;;;;;6.78;6.47;;;;;;;15.54;35.62;101223.78;5033399;28;20029;-62
2022/05/18 10:55:58;;;;;;;6.93;6.63;;;;;;;15.37;35.24;101212.53;5033210;28;20063;-63
2022/05/18 10:58:29;;;;;;;6.70;6.40;;;;;;;14.92;36.18;101214.47;5033495;28;20552;-63
2022/05/18 11:01:03;;;;;;;7.30;7.00;;;;;;;15.23;36.18;101221.41;5033096;28;20044;-62
2022/05/18 11:03:45;;;;;;;6.80;6.50;;;;;;;15.09;36.11;101209.72;5033235;28;20025;-62
2022/05/18 11:06:13;;;;;;;6.50;6.20;;;;;;;15.46;35.92;101228.25;5032871;28;20040;-63
2022/05/18 11:08:39;;;;;;;6.70;6.40;;;;;;;15.77;35.55;101215.59;5033047;28;20086;-62
2022/05/18 11:11:09;;;;;;;6.45;6.15;;;;;;;15.25;36.94;101222.88;5033100;28;20022;-62
2022/05/18 11:13:45;;;;;;;6.43;6.13;;;;;;;15.73;36.29;101220.53;5031628;28;20030;-62
2022/05/18 11:16:14;;;;;;;6.60;6.30;;;;;;;15.79;36.05;101221.59;5033077;28;20029;-62
2022/05/18 11:18:58;;;;;;;6.50;6.20;;;;;;;15.71;36.17;101218.03;5032976;28;20515;-62
2022/05/18 11:21:36;;;;;;;6.32;6.03;;;;;;;15.37;36.53;101220.53;5033069;28;20075;-63
2022/05/18 11:24:10;;;;;;;6.50;6.20;;;;;;;15.33;37.24;101227.25;5032665;28;20105;-63
2022/05/18 11:26:50;;;;;;;6.72;6.43;;;;;;;14.67;37.69;101216.59;5032520;28;20021;-62
2022/05/18 11:29:43;;;;;;;6.80;6.50;;;;;;;14.73;37.82;101233.72;5032938;28;20060;-62
2022/05/18 11:32:11;;;;;;;6.82;6.53;;;;;;;15.11;37.30;101237.91;5019818;28;20030;-62
2022/05/18 11:35:11;;;;;;;6.80;6.50;;;;;;;15.44;36.91;101235.63;5032496;28;20037;-62
2022/05/18 11:37:45;;;;;;;6.57;6.28;;;;;;;15.30;37.13;101230.34;5020771;28;20109;-62
2022/05/18 11:40:13;;;;;;;6.50;6.20;;;;;;;15.18;37.34;101221.97;5032274;28;20100;-62
2022/05/18 11:43:25;;;;;;;6.60;6.30;;;;;;;14.93;37.52;101237.50;5032743;28;20477;-62
2022/05/18 11:46:28;;;;;;;6.30;6.00;;;;;;;15.11;37.24;101221.06;5032337;28;20037;-62
2022/05/18 11:49:01;;;;;;;6.45;6.15;;;;;;;14.66;37.77;101236.28;5032412;28;20025;-62
2022/05/18 11:51:54;;;;;;;6.70;6.40;;;;;;;14.76;37.57;101223.50;5024666;28;20099;-62
2022/05/18 11:54:46;;;;;;;6.97;6.68;;;;;;;14.99;37.77;101231.41;5032254;28;20061;-62
2022/05/18 11:57:35;;;;;;;7.15;6.85;;;;;;;15.03;37.58;101216.63;5031883;28;20554;-63